createdAt,value
2018-04-27T00:01:36.933Z,60.60
2018-04-27T00:04:04.456Z,60.50
2018-04-27T00:06:31.985Z,60.70
2018-04-27T00:08:59.551Z,61.20
2018-04-27T00:11:27.428Z,61.10
2018-04-27T00:13:54.957Z,61.20
2018-04-27T00:16:22.521Z,61.60
2018-04-27T00:18:50.014Z,60.90
2018-04-27T00:21:17.525Z,61.60
2018-04-27T00:23:45.120Z,61.20
2018-04-27T00:26:12.630Z,60.80
2018-04-27T00:28:40.356Z,61.20
2018-04-27T00:31:07.907Z,60.80
2018-04-27T00:33:35.484Z,61.40
2018-04-27T00:36:03.006Z,61.60
2018-04-27T00:38:30.518Z,61.60
2018-04-27T00:40:58.017Z,61.80
2018-04-27T00:43:25.509Z,61.80
2018-04-27T00:45:53.510Z,61.30
2018-04-27T00:48:21.031Z,61.30
2018-04-27T00:50:48.521Z,61.40
2018-04-27T00:53:16.019Z,61.50
2018-04-27T00:55:43.545Z,61.60
2018-04-27T00:58:11.871Z,61.80
2018-04-27T01:00:39.736Z,61.80
2018-04-27T01:03:07.239Z,61.80
2018-04-27T01:05:34.760Z,61.90
2018-04-27T01:08:02.257Z,62.30
2018-04-27T01:10:29.797Z,62.70
2018-04-27T01:12:57.312Z,62.40
2018-04-27T01:15:25.215Z,62.60
2018-04-27T01:17:54.117Z,62.60
2018-04-27T01:20:21.663Z,62.60
2018-04-27T01:22:49.336Z,62.90
2018-04-27T01:25:16.882Z,62.70
2018-04-27T01:27:44.448Z,62.80
2018-04-27T01:30:11.959Z,62.70
2018-04-27T01:32:39.564Z,62.80
2018-04-27T01:35:07.552Z,63.00
2018-04-27T01:37:35.055Z,63.00
2018-04-27T01:40:02.561Z,63.20
2018-04-27T01:42:30.470Z,63.30
2018-04-27T01:44:58.332Z,63.30
2018-04-27T01:47:25.894Z,63.30
2018-04-27T01:49:53.408Z,63.20
2018-04-27T01:52:20.909Z,63.10
2018-04-27T01:54:48.468Z,63.40
2018-04-27T01:57:16.018Z,63.80
2018-04-27T01:59:43.937Z,63.60
2018-04-27T02:02:11.430Z,63.60
2018-04-27T02:04:39.850Z,63.60
2018-04-27T02:07:07.368Z,63.80
2018-04-27T02:09:34.888Z,63.90
2018-04-27T02:12:02.438Z,64.00
2018-04-27T02:14:30.329Z,64.00
2018-04-27T02:16:57.854Z,63.90
2018-04-27T02:19:25.838Z,64.60
2018-04-27T02:21:53.706Z,64.80
2018-04-27T02:24:21.623Z,64.90
2018-04-27T02:26:49.132Z,64.90
2018-04-27T02:29:16.648Z,64.80
2018-04-27T02:31:44.162Z,64.90
2018-04-27T02:34:12.055Z,64.90
2018-04-27T02:36:39.556Z,64.90
2018-04-27T02:39:16.047Z,65.10
2018-04-27T02:41:43.970Z,65.20
2018-04-27T02:44:11.438Z,65.10
2018-04-27T02:49:30.697Z,65.40
2018-04-27T02:51:58.200Z,65.60
2018-04-27T02:54:36.979Z,65.90
2018-04-27T02:57:04.464Z,66.00
2018-04-27T04:40:33.291Z,69.80
2018-04-27T04:43:00.765Z,69.90
2018-04-27T04:45:28.340Z,70.00
2018-04-27T04:47:55.826Z,70.10
2018-04-27T04:50:23.288Z,70.30
2018-04-27T04:52:51.597Z,70.20
2018-04-27T04:55:19.156Z,70.20
2018-04-27T04:57:46.620Z,70.20
2018-04-27T05:00:14.143Z,70.30
2018-04-27T05:02:41.856Z,70.20
2018-04-27T05:05:09.415Z,69.90
2018-04-27T05:07:36.883Z,70.00
2018-04-27T05:10:04.368Z,70.00
2018-04-27T05:12:32.231Z,70.10
2018-04-27T05:15:00.093Z,69.90
2018-04-27T05:17:28.005Z,69.90
2018-04-27T05:19:55.014Z,69.90
2018-04-27T05:22:22.884Z,69.80
2018-04-27T05:24:50.443Z,69.80
2018-04-27T05:27:17.927Z,69.90
2018-04-27T05:29:45.917Z,69.40
2018-04-27T05:32:13.406Z,69.40
2018-04-27T05:34:41.396Z,69.40
2018-04-27T05:37:08.887Z,69.20
2018-04-27T05:39:36.769Z,69.00
2018-04-27T05:42:04.313Z,68.90
2018-04-27T05:44:31.778Z,68.80
2018-04-27T05:46:59.238Z,68.10
2018-04-27T05:49:26.816Z,68.00
2018-04-27T05:51:54.702Z,67.90
2018-04-27T05:54:22.637Z,67.70
2018-04-27T05:56:50.133Z,67.70
2018-04-27T05:59:17.645Z,67.40
2018-04-27T06:01:45.141Z,66.70
2018-04-27T06:04:13.365Z,66.50
2018-04-27T06:06:40.893Z,66.50
2018-04-27T06:09:08.743Z,64.90
2018-04-27T06:11:36.232Z,64.90
2018-04-27T06:14:04.100Z,64.20
2018-04-27T06:16:32.092Z,64.20
2018-04-27T06:18:59.648Z,64.20
2018-04-27T06:21:27.511Z,64.50
2018-04-27T06:23:55.385Z,64.10
2018-04-27T06:26:23.588Z,64.50
2018-04-27T06:28:51.085Z,64.50
2018-04-27T06:31:18.636Z,65.40
2018-04-27T06:33:46.112Z,65.00
2018-04-27T06:36:13.657Z,64.20
2018-04-27T06:38:41.146Z,63.50
2018-04-27T06:41:08.645Z,63.40
2018-04-27T06:43:36.219Z,64.30
2018-04-27T06:46:03.678Z,63.70
2018-04-27T06:48:31.196Z,63.40
2018-04-27T06:50:58.672Z,63.70
2018-04-27T06:53:26.157Z,63.00
2018-04-27T06:55:53.729Z,62.00
2018-04-27T06:58:21.599Z,61.80
2018-04-27T07:00:49.135Z,61.80
2018-04-27T07:03:16.613Z,62.20
2018-04-27T07:05:44.499Z,63.40
2018-04-27T07:08:12.139Z,63.40
2018-04-27T07:10:39.607Z,63.30
2018-04-27T07:13:07.471Z,62.80
2018-04-27T07:15:34.946Z,62.80
2018-04-27T07:18:03.536Z,63.60
2018-04-27T07:20:31.468Z,63.90
2018-04-27T07:22:58.940Z,63.90
2018-04-27T07:25:26.418Z,62.80
2018-04-27T07:27:53.894Z,61.90
2018-04-27T07:30:21.774Z,60.10
2018-04-27T07:32:49.655Z,60.40
2018-04-27T07:35:17.126Z,60.40
2018-04-27T07:37:44.594Z,59.70
2018-04-27T07:40:12.051Z,60.10
2018-04-27T07:42:39.540Z,60.50
2018-04-27T07:45:07.072Z,59.10
2018-04-27T07:47:34.545Z,58.60
2018-04-27T07:50:02.041Z,58.50
2018-04-27T07:52:29.508Z,58.60
2018-04-27T07:54:57.008Z,58.00
2018-04-27T07:57:24.534Z,57.60
2018-04-27T07:59:52.029Z,57.30
2018-04-27T08:02:19.894Z,58.00
2018-04-27T08:04:47.752Z,58.70
2018-04-27T08:07:15.267Z,58.70
2018-04-27T08:09:42.820Z,58.20
2018-04-27T08:12:10.303Z,57.60
2018-04-27T08:14:37.786Z,57.20
2018-04-27T08:17:05.278Z,56.40
2018-04-27T08:19:33.147Z,55.80
2018-04-27T08:22:01.059Z,55.80
2018-04-27T08:24:28.612Z,55.80
2018-04-27T08:26:56.527Z,55.70
2018-04-27T08:29:24.141Z,55.70
2018-04-27T08:31:51.621Z,55.30
2018-04-27T08:34:19.271Z,55.70
2018-04-27T08:36:46.805Z,56.20
2018-04-27T08:39:14.719Z,55.90
2018-04-27T08:41:43.057Z,55.90
2018-04-27T08:44:10.944Z,54.20
2018-04-27T08:46:38.898Z,53.70
2018-04-27T08:49:06.375Z,53.70
2018-04-27T08:51:34.273Z,53.80
2018-04-27T08:54:01.825Z,53.80
2018-04-27T08:56:29.385Z,53.80
2018-04-27T08:58:56.920Z,54.40
2018-04-27T09:01:24.379Z,53.30
2018-04-27T09:03:51.971Z,52.10
2018-04-27T09:06:19.935Z,50.90
2018-04-27T09:08:47.333Z,50.90
2018-04-27T09:11:14.876Z,51.90
2018-04-27T09:13:42.757Z,51.30
2018-04-27T09:16:10.256Z,51.30
2018-04-27T09:18:37.753Z,49.00
2018-04-27T09:21:05.231Z,47.80
2018-04-27T09:23:33.190Z,47.00
2018-04-27T09:26:01.061Z,46.20
2018-04-27T09:28:28.569Z,46.20
2018-04-27T09:30:56.042Z,45.30
2018-04-27T09:33:23.505Z,44.50
2018-04-27T09:35:51.032Z,43.20
2018-04-27T09:38:18.501Z,41.90
2018-04-27T09:40:45.973Z,41.40
2018-04-27T09:43:13.450Z,40.20
2018-04-27T09:45:40.940Z,38.80
2018-04-27T09:48:08.467Z,36.70
2018-04-27T09:50:35.948Z,36.60
2018-04-27T09:53:03.420Z,35.40
2018-04-27T09:55:30.896Z,35.20
2018-04-27T09:57:58.374Z,35.80
2018-04-27T10:00:26.897Z,34.40
2018-04-27T10:02:54.382Z,34.50
2018-04-27T10:05:21.869Z,34.70
2018-04-27T10:07:49.339Z,34.90
2018-04-27T10:10:16.797Z,34.50
2018-04-27T10:12:44.360Z,34.70
2018-04-27T10:15:11.820Z,34.50
2018-04-27T10:17:39.378Z,35.40
2018-04-27T10:20:06.898Z,35.70
2018-04-27T10:22:34.374Z,34.70
2018-04-27T10:25:01.892Z,35.60
2018-04-27T10:27:29.769Z,37.30
2018-04-27T10:29:57.633Z,37.90
2018-04-27T10:32:25.190Z,37.90
2018-04-27T10:34:52.660Z,38.00
2018-04-27T10:37:20.207Z,37.70
2018-04-27T10:39:47.669Z,37.40
2018-04-27T10:42:15.130Z,37.40
2018-04-27T10:44:42.709Z,37.80
2018-04-27T10:47:10.165Z,38.40
2018-04-27T10:49:37.698Z,38.50
2018-04-27T10:52:05.143Z,38.50
2018-04-27T10:54:32.618Z,38.90
2018-04-27T10:57:00.087Z,39.20
2018-04-27T10:59:27.543Z,39.00
2018-04-27T11:01:55.031Z,39.20
2018-04-27T11:04:22.494Z,39.70
2018-04-27T11:06:49.959Z,39.90
2018-04-27T11:09:17.424Z,39.90
2018-04-27T11:11:44.940Z,39.50
2018-04-27T11:14:12.447Z,39.80
2018-04-27T11:16:40.013Z,39.70
2018-04-27T11:19:07.477Z,39.70
2018-04-27T11:21:35.521Z,39.50
2018-04-27T11:24:03.110Z,39.90
2018-04-27T11:26:30.633Z,39.40
2018-04-27T11:28:58.137Z,39.40
2018-04-27T11:31:25.599Z,39.50
2018-04-27T11:33:53.177Z,39.70
2018-04-27T11:36:21.026Z,40.00
2018-04-27T11:38:48.620Z,40.00
2018-04-27T11:41:16.168Z,39.50
2018-04-27T11:43:44.041Z,39.80
2018-04-27T11:46:11.509Z,39.80
2018-04-27T11:48:38.957Z,40.10
2018-04-27T11:51:06.469Z,40.50
2018-04-27T11:53:33.922Z,40.10
2018-04-27T11:56:01.784Z,39.70
2018-04-27T11:58:29.647Z,39.60
2018-04-27T12:00:57.518Z,39.70
2018-04-27T12:03:25.391Z,39.40
2018-04-27T12:05:53.259Z,40.40
2018-04-27T12:08:21.232Z,40.00
2018-04-27T12:10:48.691Z,40.00
2018-04-27T12:13:16.653Z,38.90
2018-04-27T12:15:44.167Z,38.90
2018-04-27T12:18:11.678Z,39.60
2018-04-27T12:20:39.255Z,39.40
2018-04-27T12:23:06.737Z,38.80
2018-04-27T12:25:35.198Z,39.00
2018-04-27T12:28:02.700Z,38.80
2018-04-27T12:30:31.833Z,41.30
2018-04-27T12:32:59.299Z,38.90
2018-04-27T12:35:26.768Z,38.00
2018-04-27T12:37:54.708Z,37.50
2018-04-27T12:40:22.268Z,37.70
2018-04-27T12:42:49.770Z,38.20
2018-04-27T12:45:17.244Z,38.20
2018-04-27T12:47:44.904Z,37.30
2018-04-27T12:50:12.361Z,37.70
2018-04-27T12:52:39.936Z,39.30
2018-04-27T12:55:07.402Z,38.00
2018-04-27T12:57:34.861Z,38.00
2018-04-27T13:00:02.325Z,37.60
2018-04-27T13:02:29.783Z,37.70
2018-04-27T13:04:57.339Z,36.80
2018-04-27T13:07:24.897Z,37.40
2018-04-27T13:09:52.358Z,37.20
2018-04-27T13:12:19.840Z,37.20
2018-04-27T13:14:47.398Z,37.30
2018-04-27T13:17:14.961Z,37.10
2018-04-27T13:19:42.419Z,37.40
2018-04-27T13:22:10.841Z,37.60
2018-04-27T13:24:38.715Z,37.50
2018-04-27T13:27:06.247Z,37.50
2018-04-27T13:29:33.814Z,37.70
2018-04-27T13:32:01.274Z,36.40
2018-04-27T13:34:28.859Z,36.20
2018-04-27T13:36:56.722Z,36.90
2018-04-27T13:39:24.590Z,36.70
2018-04-27T13:41:52.147Z,36.70
2018-04-27T13:44:19.606Z,37.10
2018-04-27T13:46:47.064Z,36.80
2018-04-27T13:49:14.525Z,37.70
2018-04-27T13:51:42.888Z,36.70
2018-04-27T13:54:10.400Z,36.60
2018-04-27T13:56:38.243Z,36.50
2018-04-27T13:59:05.697Z,36.50
2018-04-27T14:01:33.999Z,35.80
2018-04-27T14:04:01.600Z,36.40
2018-04-27T14:06:29.217Z,36.30
2018-04-27T14:08:56.781Z,35.80
2018-04-27T14:11:24.352Z,35.80
2018-04-27T14:13:51.819Z,35.20
2018-04-27T14:16:19.367Z,35.10
2018-04-27T14:18:48.434Z,35.40
2018-04-27T14:21:15.926Z,35.40
2018-04-27T14:23:43.494Z,35.70
2018-04-27T14:26:10.957Z,36.00
2018-04-27T14:28:38.414Z,35.60
2018-04-27T14:31:05.955Z,35.90
2018-04-27T14:33:33.427Z,35.60
2018-04-27T14:36:00.909Z,36.00
2018-04-27T14:38:28.374Z,36.20
2018-04-27T14:40:56.293Z,36.60
2018-04-27T14:43:23.758Z,36.60
2018-04-27T14:45:51.229Z,36.60
2018-04-27T14:48:18.707Z,36.50
2018-04-27T14:50:46.176Z,36.10
2018-04-27T14:53:13.632Z,36.40
2018-04-27T14:55:42.511Z,35.30
2018-04-27T14:58:09.979Z,36.00
2018-04-27T15:00:37.483Z,35.20
2018-04-27T15:03:04.938Z,34.90
2018-04-27T15:05:32.396Z,34.50
2018-04-27T15:07:59.912Z,34.30
2018-04-27T15:10:27.422Z,34.40
2018-04-27T15:12:54.879Z,34.30
2018-04-27T15:15:22.335Z,34.20
2018-04-27T15:17:49.817Z,34.60
2018-04-27T15:20:17.400Z,34.60
2018-04-27T15:22:45.278Z,35.20
2018-04-27T15:25:12.819Z,35.20
2018-04-27T15:27:40.281Z,34.80
2018-04-27T15:30:07.740Z,34.80
2018-04-27T15:32:35.303Z,34.80
2018-04-27T15:35:02.762Z,35.70
2018-04-27T15:37:30.521Z,35.20
2018-04-27T15:39:58.161Z,35.20
2018-04-27T15:42:25.692Z,35.30
2018-04-27T15:44:53.971Z,35.40
2018-04-27T15:47:25.191Z,35.30
2018-04-27T15:49:52.690Z,35.30
2018-04-27T15:52:20.197Z,35.20
2018-04-27T15:54:47.706Z,35.30
2018-04-27T15:57:15.654Z,34.80
2018-04-27T15:59:43.570Z,35.20
2018-04-27T16:02:11.053Z,35.20
2018-04-27T16:04:38.661Z,35.20
2018-04-27T16:07:06.118Z,35.20
2018-04-27T16:09:34.373Z,35.00
2018-04-27T16:12:02.282Z,35.60
2018-04-27T16:14:30.244Z,35.10
2018-04-27T16:16:59.115Z,35.10
2018-04-27T16:19:27.269Z,35.50
2018-04-27T16:21:54.947Z,35.50
2018-04-27T16:24:22.484Z,36.00
2018-04-27T16:26:50.066Z,36.40
2018-04-27T16:29:17.636Z,36.00
2018-04-27T16:31:45.327Z,36.50
2018-04-27T16:34:12.934Z,36.70
2018-04-27T16:36:40.519Z,36.80
2018-04-27T16:39:08.428Z,36.60
2018-04-27T16:41:36.975Z,36.70
2018-04-27T16:44:04.578Z,36.70
2018-04-27T16:46:32.312Z,37.00
2018-04-27T16:48:59.840Z,36.70
2018-04-27T16:51:27.812Z,36.80
2018-04-27T16:53:55.513Z,36.80
2018-04-27T16:56:23.211Z,36.50
2018-04-27T16:58:50.950Z,36.50
2018-04-27T17:01:18.851Z,36.60
2018-04-27T17:03:46.410Z,37.10
2018-04-27T17:06:15.316Z,38.00
2018-04-27T17:08:42.825Z,37.90
2018-04-27T17:11:10.768Z,37.10
2018-04-27T17:13:38.267Z,37.10
2018-04-27T17:16:06.168Z,36.70
2018-04-27T17:18:33.668Z,36.70
2018-04-27T17:21:01.176Z,37.40
2018-04-27T17:23:28.842Z,37.10
2018-04-27T17:25:56.437Z,36.80
2018-04-27T17:28:24.015Z,36.60
2018-04-27T17:30:51.606Z,36.50
2018-04-27T17:33:19.172Z,36.60
2018-04-27T17:35:48.090Z,37.60
2018-04-27T17:38:15.688Z,37.60
2018-04-27T17:40:43.285Z,37.80
2018-04-27T17:43:10.814Z,37.50
2018-04-27T17:45:38.424Z,37.20
2018-04-27T17:48:06.601Z,37.10
2018-04-27T17:50:34.113Z,37.20
2018-04-27T17:53:01.663Z,37.70
2018-04-27T17:55:29.238Z,37.90
2018-04-27T17:57:56.910Z,38.10
2018-04-27T18:00:24.528Z,38.10
2018-04-27T18:02:52.062Z,37.90
2018-04-27T18:05:19.608Z,38.10
2018-04-27T18:07:47.177Z,38.10
2018-04-27T18:10:14.915Z,38.20
2018-04-27T18:12:43.077Z,39.20
2018-04-27T18:15:11.069Z,39.80
2018-04-27T18:17:38.771Z,39.80
2018-04-27T18:20:06.851Z,40.60
2018-04-27T18:22:35.620Z,40.60
2018-04-27T18:25:03.168Z,40.90
2018-04-27T18:27:30.712Z,41.30
2018-04-27T18:29:58.658Z,41.80
2018-04-27T18:32:26.297Z,41.80
2018-04-27T18:34:53.878Z,42.10
2018-04-27T18:37:21.535Z,42.60
2018-04-27T18:39:49.128Z,42.90
2018-04-27T18:42:17.567Z,43.60
2018-04-27T18:44:45.091Z,44.70
2018-04-27T18:47:13.121Z,44.50
2018-04-27T18:49:40.666Z,44.50
2018-04-27T18:52:08.239Z,45.20
2018-04-27T18:54:35.839Z,46.10
2018-04-27T18:57:03.484Z,45.60
2018-04-27T18:59:31.108Z,46.20
2018-04-27T19:01:59.081Z,46.50
2018-04-27T19:04:27.083Z,47.00
2018-04-27T19:06:54.661Z,47.00
2018-04-27T19:09:22.201Z,47.20
2018-04-27T19:11:49.781Z,47.90
2018-04-27T19:14:17.400Z,49.00
2018-04-27T19:16:45.311Z,49.80
2018-04-27T19:19:13.645Z,49.80
2018-04-27T19:21:41.221Z,50.20
2018-04-27T19:24:09.128Z,51.30
2018-04-27T19:26:37.566Z,51.30
2018-04-27T19:29:05.185Z,51.80
2018-04-27T19:31:32.729Z,51.90
2018-04-27T19:34:00.606Z,52.50
2018-04-27T19:36:28.099Z,52.50
2018-04-27T19:38:55.700Z,52.90
2018-04-27T19:41:23.294Z,53.10
2018-04-27T19:43:50.780Z,53.70
2018-04-27T19:46:18.345Z,53.40
2018-04-27T19:48:45.935Z,53.60
2018-04-27T19:51:13.491Z,54.00
2018-04-27T19:53:40.989Z,53.90
2018-04-27T19:56:08.596Z,53.70
2018-04-27T19:58:36.120Z,53.50
2018-04-27T20:01:04.073Z,53.70
2018-04-27T20:03:31.677Z,53.70
2018-04-27T20:06:01.116Z,54.10
2018-04-27T20:08:31.577Z,54.40
2018-04-27T20:10:59.468Z,54.80
2018-04-27T20:13:27.062Z,54.80
2018-04-27T20:15:57.248Z,54.90
2018-04-27T20:18:25.242Z,55.10
2018-04-27T20:20:53.147Z,55.20
2018-04-27T20:23:29.815Z,55.20
2018-04-27T20:25:59.327Z,55.10
2018-04-27T20:28:30.846Z,55.30
2018-04-27T20:30:58.464Z,55.50
2018-04-27T20:33:26.029Z,55.50
2018-04-27T20:35:56.386Z,55.20
2018-04-27T20:38:24.875Z,55.50
2018-04-27T20:40:52.762Z,55.80
2018-04-27T20:43:23.552Z,56.10
2018-04-27T20:45:51.031Z,56.10
2018-04-27T20:48:19.638Z,56.10
2018-04-27T20:50:58.152Z,56.20
2018-04-27T20:53:26.830Z,56.80
2018-04-27T20:56:04.269Z,56.80
2018-04-27T20:58:32.443Z,56.70
2018-04-27T21:00:59.931Z,56.40
2018-04-27T21:03:27.465Z,56.50
2018-04-27T21:05:54.970Z,56.50
2018-04-27T21:08:22.472Z,56.30
2018-04-27T21:10:50.374Z,55.50
2018-04-27T21:13:17.936Z,55.50
2018-04-27T21:15:45.728Z,55.00
2018-04-27T21:18:16.949Z,55.30
2018-04-27T21:20:44.504Z,55.70
2018-04-27T21:23:12.069Z,56.40
2018-04-27T21:25:39.622Z,56.50
2018-04-27T21:28:12.249Z,56.40
2018-04-27T21:30:39.768Z,56.40
2018-04-27T21:33:08.480Z,55.70
2018-04-27T21:49:19.840Z,56.00
2018-04-27T21:51:56.826Z,56.00
2018-04-27T21:54:24.352Z,55.70
2018-04-27T21:56:57.276Z,55.60
2018-04-27T21:59:24.840Z,55.50
2018-04-27T22:01:52.368Z,55.50
2018-04-27T22:04:21.869Z,55.40
2018-04-27T22:06:49.808Z,54.90
2018-04-27T22:09:17.440Z,54.90
2018-04-27T22:11:46.677Z,54.70
2018-04-27T22:14:22.560Z,54.30
2018-04-27T22:30:19.787Z,53.90
2018-04-27T22:32:47.694Z,53.80
2018-04-27T22:35:18.126Z,53.80
2018-04-27T22:37:45.632Z,53.60
2018-04-27T22:53:52.192Z,53.90
2018-04-27T22:56:21.627Z,53.80
2018-04-27T22:58:49.170Z,54.00
2018-04-27T23:01:16.733Z,53.70
2018-04-27T23:03:44.693Z,53.90
2018-04-27T23:06:13.537Z,53.90
2018-04-27T23:08:50.541Z,53.90
2018-04-27T23:11:20.775Z,54.10
2018-04-27T23:13:49.319Z,54.00
2018-04-27T23:16:20.433Z,54.00
2018-04-27T23:18:47.932Z,54.20
2018-04-27T23:21:23.408Z,55.00
2018-04-27T23:23:50.998Z,55.40
2018-04-27T23:26:18.963Z,55.30
2018-04-27T23:28:47.096Z,55.20
2018-04-27T23:31:14.571Z,55.20
2018-04-27T23:33:42.072Z,55.60
2018-04-27T23:36:09.970Z,55.30
2018-04-27T23:38:37.461Z,55.30
2018-04-27T23:41:04.955Z,55.50
2018-04-27T23:43:32.543Z,56.40
2018-04-27T23:46:00.087Z,55.60
2018-04-27T23:48:27.637Z,56.60
2018-04-27T23:50:56.764Z,56.10
2018-04-27T23:53:25.557Z,57.10
2018-04-27T23:55:53.457Z,56.00
2018-04-27T23:58:26.502Z,56.00
